Time;durP1;ratioP1;P1;durP2;ratioP2;P2;SDS_P1;SDS_P2;PMS_P1;PMS_P2;Temp;Humidity;BMP_temperature;BMP_pressure;BME280_temperature;BME280_humidity;BME280_pressure;Samples;Min_cycle;Max_cycle;Signal;HPM_P1;HPM_P2
2021/07/18 00:02:11;;;;;;;;;;;;;;;25.42;63.76;100946.81;5107816;28;1976;-66
2021/07/18 00:04:38;;;;;;;;;;;;;;;25.42;63.54;100941.47;5107634;28;1321;-65
2021/07/18 00:07:04;;;;;;;;;;;;;;;25.44;63.78;100937.69;5107240;28;1561;-65
2021/07/18 00:09:31;;;;;;;;;;;;;;;25.41;63.53;100937.94;5105537;28;1345;-66
2021/07/18 00:11:58;;;;;;;;;;;;;;;25.41;63.43;100927.28;5107300;28;1236;-65
2021/07/18 00:14:25;;;;;;;;;;;;;;;25.40;63.34;100935.44;5104588;28;1263;-65
2021/07/18 00:16:51;;;;;;;;;;;;;;;25.40;63.42;100928.28;5110481;28;1229;-66
2021/07/18 00:19:18;;;;;;;;;;;;;;;25.39;63.15;100929.25;5111211;28;1278;-66
2021/07/18 00:21:45;;;;;;;;;;;;;;;25.40;62.89;100925.63;5089857;28;1296;-66
2021/07/18 00:24:23;;;;;;;;;;;;;;;25.38;63.15;100919.53;5101909;28;1918;-66
2021/07/18 00:26:50;;;;;;;;;;;;;;;25.39;62.77;100917.72;5092510;28;1260;-66
2021/07/18 00:29:17;;;;;;;;;;;;;;;25.40;62.60;100919.44;5092557;28;1292;-65
2021/07/18 00:31:44;;;;;;;;;;;;;;;25.38;62.58;100911.53;5111128;28;1225;-66
2021/07/18 00:34:10;;;;;;;;;;;;;;;25.38;62.57;100918.72;5109157;28;1349;-65
2021/07/18 00:36:37;;;;;;;;;;;;;;;25.37;62.61;100914.34;5111331;28;1248;-66
2021/07/18 00:39:04;;;;;;;;;;;;;;;25.39;62.34;100910.56;5110766;28;1398;-65
2021/07/18 00:41:31;;;;;;;;;;;;;;;25.37;61.98;100904.53;5111007;28;1220;-66
2021/07/18 00:43:58;;;;;;;;;;;;;;;25.38;61.82;100903.53;5110304;28;2292;-65
2021/07/18 00:46:24;;;;;;;;;;;;;;;25.37;61.35;100909.88;5110372;28;1217;-66
2021/07/18 00:48:51;;;;;;;;;;;;;;;25.35;60.56;100913.63;5110533;28;1369;-66
2021/07/18 00:51:18;;;;;;;;;;;;;;;25.36;60.71;100912.63;5133013;28;1236;-66
2021/07/18 00:53:45;;;;;;;;;;;;;;;25.35;60.98;100906.44;5134405;28;1279;-64
2021/07/18 00:56:12;;;;;;;;;;;;;;;25.31;60.90;100904.19;5133912;28;1078;-66
2021/07/18 00:58:40;;;;;;;;;;;;;;;25.27;60.47;100892.91;5112723;28;1373;-65
2021/07/18 01:01:07;;;;;;;;;;;;;;;25.28;59.92;100899.09;5110224;28;1359;-66
2021/07/18 01:03:34;;;;;;;;;;;;;;;25.27;60.36;100897.41;5091328;28;1914;-64
2021/07/18 01:06:01;;;;;;;;;;;;;;;25.26;60.21;100896.53;5091963;28;1292;-66
2021/07/18 01:08:27;;;;;;;;;;;;;;;25.24;59.91;100895.84;5109770;28;1236;-66
2021/07/18 01:10:54;;;;;;;;;;;;;;;25.24;60.00;100892.31;5091728;28;1233;-66
2021/07/18 01:13:21;;;;;;;;;;;;;;;25.24;60.16;100895.84;5091474;28;1399;-66
2021/07/18 01:15:48;;;;;;;;;;;;;;;25.25;60.32;100886.88;5091165;28;1442;-66
2021/07/18 01:18:14;;;;;;;;;;;;;;;25.23;60.56;100888.81;5091312;28;1287;-67
2021/07/18 01:20:42;;;;;;;;;;;;;;;25.22;60.91;100894.28;5090404;28;1303;-65
2021/07/18 01:23:09;;;;;;;;;;;;;;;25.22;60.45;100888.94;5109925;28;1980;-65
2021/07/18 01:25:36;;;;;;;;;;;;;;;25.21;59.97;100881.91;5110079;28;1240;-66
2021/07/18 01:28:10;;;;;;;;;;;;;;;25.19;59.22;100882.03;5090592;28;1287;-65
2021/07/18 01:30:37;;;;;;;;;;;;;;;25.19;59.13;100874.06;5109880;28;1311;-66
2021/07/18 01:33:04;;;;;;;;;;;;;;;25.18;58.81;100876.81;5109832;28;1346;-66
2021/07/18 01:35:31;;;;;;;;;;;;;;;25.17;58.98;100875.97;5110080;28;1256;-66
2021/07/18 01:37:58;;;;;;;;;;;;;;;25.17;58.54;100867.97;5109848;28;1430;-65
2021/07/18 01:40:25;;;;;;;;;;;;;;;25.16;58.04;100868.97;5109504;28;1275;-65
2021/07/18 01:42:54;;;;;;;;;;;;;;;25.15;58.16;100874.41;5109089;28;1909;-65
2021/07/18 01:45:21;;;;;;;;;;;;;;;25.12;57.83;100862.19;5088122;28;1768;-66
2021/07/18 01:47:48;;;;;;;;;;;;;;;25.12;57.31;100858.66;5109230;28;1275;-66
2021/07/18 01:50:16;;;;;;;;;;;;;;;25.12;57.37;100862.19;5091055;28;1260;-65
2021/07/18 01:52:44;;;;;;;;;;;;;;;25.12;57.19;100851.53;5109194;28;1204;-65
2021/07/18 01:55:11;;;;;;;;;;;;;;;25.09;57.09;100850.94;5110635;28;1305;-66
2021/07/18 01:57:39;;;;;;;;;;;;;;;25.12;57.35;100853.34;5109397;28;1347;-66
2021/07/18 02:00:08;;;;;;;;;;;;;;;25.11;57.77;100844.50;5089723;28;1268;-66
2021/07/18 02:02:34;;;;;;;;;;;;;;;25.12;57.75;100840.00;5108601;28;2066;-66
2021/07/18 02:05:04;;;;;;;;;;;;;;;25.09;57.97;100846.44;5106632;28;1261;-65
2021/07/18 02:07:30;;;;;;;;;;;;;;;25.09;57.85;100841.13;5108593;28;1240;-66
2021/07/18 02:09:57;;;;;;;;;;;;;;;25.08;57.79;100839.41;5109086;28;1305;-65
2021/07/18 02:12:26;;;;;;;;;;;;;;;25.08;57.94;100841.25;5108435;28;1295;-66
2021/07/18 02:14:53;;;;;;;;;;;;;;;25.08;57.92;100831.41;5108959;28;1232;-65
2021/07/18 02:17:19;;;;;;;;;;;;;;;25.09;57.88;100830.44;5108587;28;1233;-66
2021/07/18 02:19:46;;;;;;;;;;;;;;;25.10;57.77;100826.81;5070969;28;1383;-66
2021/07/18 02:22:13;;;;;;;;;;;;;;;25.09;57.25;100830.44;5108609;28;1220;-66
2021/07/18 02:24:41;;;;;;;;;;;;;;;25.05;57.38;100823.66;5090090;28;1914;-66
2021/07/18 02:27:08;;;;;;;;;;;;;;;25.01;57.64;100822.25;5108312;28;1291;-66
2021/07/18 02:29:35;;;;;;;;;;;;;;;24.99;57.74;100821.50;5089928;28;1356;-65
2021/07/18 02:32:02;;;;;;;;;;;;;;;25.02;57.74;100816.78;5108216;28;1303;-66
2021/07/18 02:34:29;;;;;;;;;;;;;;;24.99;57.74;100813.50;5108247;28;1287;-66
2021/07/18 02:36:56;;;;;;;;;;;;;;;24.97;57.48;100812.81;5108240;28;1232;-66
2021/07/18 02:39:23;;;;;;;;;;;;;;;24.97;57.58;100803.00;5107212;28;1458;-65
2021/07/18 02:41:49;;;;;;;;;;;;;;;24.96;57.14;100792.44;5108410;28;1300;-66
2021/07/18 02:44:17;;;;;;;;;;;;;;;24.93;57.09;100795.38;5108324;28;1910;-66
2021/07/18 02:46:44;;;;;;;;;;;;;;;24.95;56.99;100786.31;5089972;28;1437;-66
2021/07/18 02:49:11;;;;;;;;;;;;;;;24.99;56.36;100781.53;5108108;28;1463;-66
2021/07/18 02:51:38;;;;;;;;;;;;;;;24.97;56.45;100776.34;5107981;28;1221;-66
2021/07/18 02:54:04;;;;;;;;;;;;;;;24.95;56.17;100770.31;5105352;28;1296;-65
2021/07/18 02:56:31;;;;;;;;;;;;;;;24.95;56.42;100772.13;5090151;28;1307;-65
2021/07/18 02:58:58;;;;;;;;;;;;;;;24.93;56.12;100766.91;5108021;28;1302;-65
2021/07/18 03:01:24;;;;;;;;;;;;;;;24.96;56.32;100771.13;5104925;28;1272;-65
2021/07/18 03:03:51;;;;;;;;;;;;;;;24.93;56.30;100758.06;5107982;28;1913;-65
2021/07/18 03:06:18;;;;;;;;;;;;;;;24.91;56.56;100760.00;5107739;28;1109;-66
2021/07/18 03:08:45;;;;;;;;;;;;;;;24.87;56.77;100758.56;5107483;28;1370;-65
2021/07/18 03:11:11;;;;;;;;;;;;;;;24.92;56.60;100753.72;5107845;28;1271;-66
2021/07/18 03:13:39;;;;;;;;;;;;;;;24.89;56.48;100749.50;5090288;28;1385;-65
2021/07/18 03:16:05;;;;;;;;;;;;;;;24.90;56.23;100750.31;5090336;28;1367;-66
2021/07/18 03:18:32;;;;;;;;;;;;;;;24.88;56.47;100750.47;5107610;28;1258;-65
2021/07/18 03:20:59;;;;;;;;;;;;;;;24.81;56.60;100746.59;5108001;28;1288;-66
2021/07/18 03:23:26;;;;;;;;;;;;;;;24.86;56.43;100739.09;5107945;28;1918;-66
2021/07/18 03:25:52;;;;;;;;;;;;;;;24.85;56.49;100740.06;5108332;28;1311;-66
2021/07/18 03:28:19;;;;;;;;;;;;;;;24.91;56.29;100741.38;5107833;28;1370;-65
2021/07/18 03:30:46;;;;;;;;;;;;;;;24.90;56.31;100743.19;5107978;28;1398;-66
2021/07/18 03:33:13;;;;;;;;;;;;;;;24.88;56.41;100738.97;5107994;28;1354;-65
2021/07/18 03:35:40;;;;;;;;;;;;;;;24.85;56.46;100737.41;5088915;28;1577;-65
2021/07/18 03:38:07;;;;;;;;;;;;;;;24.83;56.55;100733.19;5089254;28;1438;-66
2021/07/18 03:40:33;;;;;;;;;;;;;;;24.85;56.59;100729.41;5107993;28;1216;-65
2021/07/18 03:43:00;;;;;;;;;;;;;;;24.75;56.99;100731.09;5107799;28;1937;-65
2021/07/18 03:45:27;;;;;;;;;;;;;;;24.74;56.67;100726.75;5089126;28;1959;-65
2021/07/18 03:47:53;;;;;;;;;;;;;;;24.81;56.67;100730.63;5107751;28;1228;-66
2021/07/18 03:50:21;;;;;;;;;;;;;;;24.80;56.10;100728.06;5108819;28;1334;-65
2021/07/18 03:52:49;;;;;;;;;;;;;;;24.78;56.03;100725.50;5109121;28;1194;-65
2021/07/18 03:55:16;;;;;;;;;;;;;;;24.75;56.03;100720.44;5111594;28;1411;-65
2021/07/18 03:57:43;;;;;;;;;;;;;;;24.76;56.20;100731.94;5093595;28;1235;-66
2021/07/18 04:00:10;;;;;;;;;;;;;;;24.75;55.69;100727.56;5109173;28;1279;-64
2021/07/18 04:02:37;;;;;;;;;;;;;;;24.72;55.74;100730.50;5111789;28;1304;-65
2021/07/18 04:05:04;;;;;;;;;;;;;;;24.72;55.59;100727.81;5111793;28;1917;-66
2021/07/18 04:07:32;;;;;;;;;;;;;;;24.72;54.98;100723.34;5109398;28;1249;-66
2021/07/18 04:10:00;;;;;;;;;;;;;;;24.68;55.44;100724.59;5111572;28;1299;-65
2021/07/18 04:12:28;;;;;;;;;;;;;;;24.70;55.94;100719.13;5111808;28;1212;-66
2021/07/18 04:14:55;;;;;;;;;;;;;;;24.68;55.89;100721.09;5126489;28;1275;-66
2021/07/18 04:17:22;;;;;;;;;;;;;;;24.63;56.39;100709.94;5134705;28;1054;-66
2021/07/18 04:19:49;;;;;;;;;;;;;;;24.65;56.41;100714.19;5117130;28;1377;-65
2021/07/18 04:22:15;;;;;;;;;;;;;;;24.64;56.55;100723.16;5122418;28;1164;-65
2021/07/18 04:24:42;;;;;;;;;;;;;;;24.63;56.54;100720.59;5111798;28;1890;-66
2021/07/18 04:27:09;;;;;;;;;;;;;;;24.62;56.50;100718.94;5092642;28;1672;-66
2021/07/18 04:29:39;;;;;;;;;;;;;;;24.63;56.59;100716.13;5092323;28;1345;-66
2021/07/18 04:32:06;;;;;;;;;;;;;;;24.63;56.68;100723.25;5111065;28;1287;-65
2021/07/18 04:34:33;;;;;;;;;;;;;;;24.59;56.72;100720.03;5110958;28;1267;-65
2021/07/18 04:37:00;;;;;;;;;;;;;;;24.61;56.64;100719.88;5110993;28;1236;-66
2021/07/18 04:39:28;;;;;;;;;;;;;;;24.62;56.50;100721.59;5110538;28;1654;-65
2021/07/18 04:41:54;;;;;;;;;;;;;;;24.65;56.12;100713.34;5107933;28;1244;-64
2021/07/18 04:44:22;;;;;;;;;;;;;;;24.66;56.03;100715.88;5110601;28;1992;-66
2021/07/18 04:46:49;;;;;;;;;;;;;;;24.67;56.19;100714.06;5110508;28;1284;-66
2021/07/18 04:49:16;;;;;;;;;;;;;;;24.66;55.85;100721.19;5108202;28;1311;-65
2021/07/18 04:51:43;;;;;;;;;;;;;;;24.66;55.82;100729.19;5110090;28;1240;-66
2021/07/18 04:54:11;;;;;;;;;;;;;;;24.66;55.82;100725.66;5110242;28;1364;-65
2021/07/18 04:56:38;;;;;;;;;;;;;;;24.66;55.70;100723.84;5109788;28;1212;-66
2021/07/18 04:59:04;;;;;;;;;;;;;;;24.66;55.94;100725.66;5091930;28;1267;-66
2021/07/18 05:01:31;;;;;;;;;;;;;;;24.68;56.03;100723.75;5109907;28;1272;-66
2021/07/18 05:03:58;;;;;;;;;;;;;;;24.68;56.07;100724.59;5091481;28;1974;-66
2021/07/18 05:06:25;;;;;;;;;;;;;;;24.69;55.98;100736.06;5110286;28;1279;-66
2021/07/18 05:08:52;;;;;;;;;;;;;;;24.66;55.92;100731.00;5110002;28;1364;-64
2021/07/18 05:11:21;;;;;;;;;;;;;;;24.65;56.04;100735.50;5110132;28;1209;-66
2021/07/18 05:13:50;;;;;;;;;;;;;;;24.64;56.23;100728.47;5110455;28;1219;-65
2021/07/18 05:16:17;;;;;;;;;;;;;;;24.61;56.44;100723.41;5110024;28;1192;-66
2021/07/18 05:18:44;;;;;;;;;;;;;;;24.59;56.36;100728.03;5091550;28;1380;-65
2021/07/18 05:21:11;;;;;;;;;;;;;;;24.62;56.30;100724.25;5091631;28;1388;-65
2021/07/18 05:23:38;;;;;;;;;;;;;;;24.62;56.61;100734.91;5107487;28;1976;-66
2021/07/18 05:26:04;;;;;;;;;;;;;;;24.59;56.87;100729.81;5091824;28;1269;-65
2021/07/18 05:28:49;;;;;;;;;;;;;;;24.60;57.35;100728.84;5121825;28;1324;-66
2021/07/18 05:31:15;;;;;;;;;;;;;;;24.60;57.49;100731.50;5131361;28;1161;-65
2021/07/18 05:33:42;;;;;;;;;;;;;;;24.59;57.89;100733.34;5132056;28;1199;-66
2021/07/18 05:36:12;;;;;;;;;;;;;;;24.58;58.57;100734.31;5121923;28;1233;-65
2021/07/18 05:38:39;;;;;;;;;;;;;;;24.59;58.42;100729.81;5088071;28;1294;-66
2021/07/18 05:41:06;;;;;;;;;;;;;;;24.56;59.06;100732.75;5109358;28;1240;-66
2021/07/18 05:43:33;;;;;;;;;;;;;;;24.55;58.86;100741.69;5090518;28;2000;-66
2021/07/18 05:46:00;;;;;;;;;;;;;;;24.57;58.52;100737.06;5107083;28;1193;-66
2021/07/18 05:48:27;;;;;;;;;;;;;;;24.55;58.76;100733.69;5109390;28;1326;-65
2021/07/18 05:50:53;;;;;;;;;;;;;;;24.60;58.15;100732.34;5090832;28;1365;-65
2021/07/18 05:53:20;;;;;;;;;;;;;;;24.61;58.37;100728.72;5106548;28;1364;-65
2021/07/18 05:55:47;;;;;;;;;;;;;;;24.60;58.18;100728.84;5090988;28;1335;-66
2021/07/18 05:58:14;;;;;;;;;;;;;;;24.61;58.07;100720.75;5090569;28;1251;-66
2021/07/18 06:00:40;;;;;;;;;;;;;;;24.64;58.18;100723.16;5090557;28;1403;-65
2021/07/18 06:03:08;;;;;;;;;;;;;;;24.68;58.70;100721.09;5089132;28;1366;-67
2021/07/18 06:05:38;;;;;;;;;;;;;;;24.72;59.00;100718.03;5089522;28;1917;-67
2021/07/18 06:08:05;;;;;;;;;;;;;;;24.73;59.17;100718.88;5105957;28;1318;-67
2021/07/18 06:10:34;;;;;;;;;;;;;;;24.74;59.04;100717.91;5108644;28;1224;-67
2021/07/18 06:13:01;;;;;;;;;;;;;;;24.75;59.42;100715.09;5108570;28;1271;-67
2021/07/18 06:15:28;;;;;;;;;;;;;;;24.77;59.51;100715.00;5109220;28;1193;-66
2021/07/18 06:17:54;;;;;;;;;;;;;;;24.80;59.23;100707.59;5120296;28;1215;-65
2021/07/18 06:20:21;;;;;;;;;;;;;;;24.83;59.20;100711.84;5131562;28;1189;-67
2021/07/18 06:22:51;;;;;;;;;;;;;;;24.87;59.36;100713.28;5110052;28;1161;-69
2021/07/18 06:25:18;;;;;;;;;;;;;;;24.88;59.35;100715.81;5109236;28;1982;-66
2021/07/18 06:27:46;;;;;;;;;;;;;;;24.90;59.39;100723.69;5106551;28;1299;-66
2021/07/18 06:30:14;;;;;;;;;;;;;;;24.89;59.24;100720.19;5109211;28;1319;-66
2021/07/18 06:32:40;;;;;;;;;;;;;;;24.90;59.40;100721.00;5107048;28;1217;-66
2021/07/18 06:35:08;;;;;;;;;;;;;;;24.92;59.24;100719.09;5107915;28;1291;-66
2021/07/18 06:37:35;;;;;;;;;;;;;;;24.93;59.38;100723.41;5107896;28;1239;-67
2021/07/18 06:40:04;;;;;;;;;;;;;;;24.95;59.56;100727.69;5089200;28;1339;-65
2021/07/18 06:42:31;;;;;;;;;;;;;;;24.96;59.72;100732.00;5107679;28;1252;-64
2021/07/18 06:44:59;;;;;;;;;;;;;;;24.97;59.89;100727.53;5107251;28;1917;-66
2021/07/18 06:47:26;;;;;;;;;;;;;;;24.98;59.80;100715.91;5104967;28;1222;-66
2021/07/18 06:49:53;;;;;;;;;;;;;;;24.98;59.98;100723.91;5107954;28;1335;-65
2021/07/18 06:52:20;;;;;;;;;;;;;;;24.97;59.70;100715.06;5088809;28;1325;-64
2021/07/18 06:54:47;;;;;;;;;;;;;;;24.98;59.71;100713.25;5107453;28;1383;-64
2021/07/18 06:57:14;;;;;;;;;;;;;;;25.01;59.94;100721.00;5107101;28;1228;-65
2021/07/18 06:59:41;;;;;;;;;;;;;;;25.02;59.51;100721.84;5107459;28;1298;-64
2021/07/18 07:02:07;;;;;;;;;;;;;;;25.03;59.63;100713.69;5087496;28;1324;-64
2021/07/18 07:04:35;;;;;;;;;;;;;;;25.05;59.81;100724.25;5083247;28;1977;-66
2021/07/18 07:07:02;;;;;;;;;;;;;;;25.06;59.74;100728.56;5088799;28;1225;-64
2021/07/18 07:09:28;;;;;;;;;;;;;;;25.05;59.87;100732.25;5088692;28;1307;-65
2021/07/18 07:11:56;;;;;;;;;;;;;;;25.07;59.63;100741.78;5106884;28;1287;-66
2021/07/18 07:14:24;;;;;;;;;;;;;;;25.11;59.66;100737.06;5107169;28;1340;-64
2021/07/18 07:16:50;;;;;;;;;;;;;;;25.12;59.56;100736.91;5088474;28;1295;-65
2021/07/18 07:19:17;;;;;;;;;;;;;;;25.12;59.44;100723.59;5107176;28;1329;-64
2021/07/18 07:21:44;;;;;;;;;;;;;;;25.14;59.31;100721.63;5088476;28;1258;-65
2021/07/18 07:24:11;;;;;;;;;;;;;;;25.17;59.09;100721.38;5106865;28;1910;-65
2021/07/18 07:26:38;;;;;;;;;;;;;;;25.18;59.01;100714.22;5091708;28;1290;-65
2021/07/18 07:29:05;;;;;;;;;;;;;;;25.18;58.84;100709.75;5107327;28;1346;-67
2021/07/18 07:31:32;;;;;;;;;;;;;;;25.20;58.85;100709.63;5092320;28;1315;-67
2021/07/18 07:33:58;;;;;;;;;;;;;;;25.22;58.97;100707.66;5111917;28;1303;-69
2021/07/18 07:36:25;;;;;;;;;;;;;;;25.23;58.84;100704.84;5111647;28;1236;-69
2021/07/18 07:38:52;;;;;;;;;;;;;;;25.24;58.98;100701.22;5112152;28;1274;-64
2021/07/18 07:41:19;;;;;;;;;;;;;;;25.26;58.71;100699.25;5094523;28;1288;-69
2021/07/18 07:43:46;;;;;;;;;;;;;;;25.29;58.95;100698.19;5126519;28;1407;-69
2021/07/18 07:46:13;;;;;;;;;;;;;;;25.30;58.64;100702.53;5133225;28;1894;-68
2021/07/18 07:48:40;;;;;;;;;;;;;;;25.31;58.52;100701.56;5113191;28;1387;-69
2021/07/18 07:51:07;;;;;;;;;;;;;;;25.33;58.66;100705.78;5120877;28;1298;-69
2021/07/18 07:53:34;;;;;;;;;;;;;;;25.34;58.43;100701.28;5094149;28;1274;-68
2021/07/18 07:56:02;;;;;;;;;;;;;;;25.35;58.45;100689.66;5093458;28;1478;-68
2021/07/18 07:58:28;;;;;;;;;;;;;;;25.36;58.44;100683.34;5111282;28;1243;-69
2021/07/18 08:00:55;;;;;;;;;;;;;;;25.38;58.21;100687.56;5112226;28;1221;-69
2021/07/18 08:03:22;;;;;;;;;;;;;;;25.38;57.88;100682.22;5093143;28;1590;-67
2021/07/18 08:05:50;;;;;;;;;;;;;;;25.41;58.09;100684.63;5090130;28;1898;-66
2021/07/18 08:08:17;;;;;;;;;;;;;;;25.43;57.75;100684.50;5111320;28;1369;-68
2021/07/18 08:11:24;;;;;;;;;;;;;;;25.46;57.88;100681.56;5111317;28;1374;-70
2021/07/18 08:13:51;;;;;;;;;;;;;;;25.46;57.56;100673.56;5092822;28;1482;-70
2021/07/18 08:16:18;;;;;;;;;;;;;;;25.47;57.69;100670.75;5111414;28;1204;-69
2021/07/18 08:18:44;;;;;;;;;;;;;;;25.48;57.39;100669.81;5092584;28;1368;-70
2021/07/18 08:21:11;;;;;;;;;;;;;;;25.50;57.69;100672.38;5076013;28;1320;-69
2021/07/18 08:23:38;;;;;;;;;;;;;;;25.51;57.31;100664.22;5092998;28;1299;-68
2021/07/18 08:26:05;;;;;;;;;;;;;;;25.52;56.96;100660.59;5111808;28;1971;-67
2021/07/18 08:28:31;;;;;;;;;;;;;;;25.55;57.01;100654.16;5111599;28;1357;-66
2021/07/18 08:30:58;;;;;;;;;;;;;;;25.56;57.09;100660.31;5111548;28;1295;-67
2021/07/18 08:33:25;;;;;;;;;;;;;;;25.57;57.16;100656.66;5111437;28;1269;-68
2021/07/18 08:35:52;;;;;;;;;;;;;;;25.58;57.47;100656.53;5111179;28;1255;-68
2021/07/18 08:38:19;;;;;;;;;;;;;;;25.60;56.96;100656.41;5118813;28;1285;-69
2021/07/18 08:40:48;;;;;;;;;;;;;;;25.60;57.55;100649.25;5115449;28;1123;-68
2021/07/18 08:43:15;;;;;;;;;;;;;;;25.64;57.61;100649.81;5111365;28;1370;-68
2021/07/18 08:45:42;;;;;;;;;;;;;;;25.66;57.29;100647.84;5091777;28;1910;-68
2021/07/18 08:48:08;;;;;;;;;;;;;;;25.64;57.38;100645.34;5093120;28;1275;-69
2021/07/18 08:50:35;;;;;;;;;;;;;;;25.65;57.45;100640.84;5111284;28;800;-68
2021/07/18 08:53:02;;;;;;;;;;;;;;;25.66;57.27;100638.03;5110985;28;1330;-68
2021/07/18 08:55:29;;;;;;;;;;;;;;;25.67;57.30;100639.75;5092535;28;1594;-64
2021/07/18 08:57:57;;;;;;;;;;;;;;;25.68;56.49;100635.25;5109421;28;1119;-64
2021/07/18 09:00:23;;;;;;;;;;;;;;;25.68;56.90;100637.91;5109320;28;1991;-63
2021/07/18 09:02:51;;;;;;;;;;;;;;;25.68;56.71;100635.25;5101120;28;1457;-63
2021/07/18 09:05:19;;;;;;;;;;;;;;;25.69;56.97;100637.75;5089455;28;2014;-64
2021/07/18 09:07:53;;;;;;;;;;;;;;;25.73;56.46;100638.34;5092415;28;1209;-63
2021/07/18 09:10:25;;;;;;;;;;;;;;;25.72;56.77;100639.31;5091660;28;1620;-63
2021/07/18 09:13:02;;;;;;;;;;;;;;;25.69;56.35;100637.75;5091067;28;990;-63
2021/07/18 09:15:39;;;;;;;;;;;;;;;25.74;56.24;100640.03;5091243;28;1163;-64
2021/07/18 09:18:09;;;;;;;;;;;;;;;25.77;56.09;100637.09;5108709;28;1367;-65
2021/07/18 09:20:49;;;;;;;;;;;;;;;25.78;56.50;100636.09;5091060;28;1220;-65
2021/07/18 09:23:20;;;;;;;;;;;;;;;25.79;57.03;100633.31;5109025;28;1239;-66
2021/07/18 09:25:48;;;;;;;;;;;;;;;25.81;57.06;100635.84;5109137;28;1918;-67
2021/07/18 09:28:17;;;;;;;;;;;;;;;25.84;56.95;100639.09;5109106;28;1204;-66
2021/07/18 09:30:46;;;;;;;;;;;;;;;25.83;58.16;100634.75;5109420;28;969;-65
2021/07/18 09:33:21;;;;;;;;;;;;;;;25.87;58.31;100630.00;5109425;28;1343;-66
2021/07/18 09:35:47;;;;;;;;;;;;;;;25.88;58.43;100631.66;5094394;28;1529;-66
2021/07/18 09:38:24;;;;;;;;;;;;;;;25.86;58.75;100633.63;5107487;28;1391;-62
2021/07/18 09:40:56;;;;;;;;;;;;;;;25.96;59.75;100632.66;5098097;28;747;-67
2021/07/18 09:43:23;;;;;;;;;;;;;;;25.95;60.18;100639.00;5088696;28;1278;-63
2021/07/18 09:45:57;;;;;;;;;;;;;;;25.96;59.16;100638.00;5069462;28;1910;-66
2021/07/18 09:48:44;;;;;;;;;;;;;;;25.93;59.19;100637.44;5087943;28;1244;-65
2021/07/18 09:51:14;;;;;;;;;;;;;;;25.96;59.74;100635.31;5088426;28;789;-65
2021/07/18 09:53:41;;;;;;;;;;;;;;;25.97;59.73;100641.50;5088111;28;1351;-62
2021/07/18 09:56:17;;;;;;;;;;;;;;;26.01;60.08;100632.25;5070146;28;1306;-61
2021/07/18 09:58:55;;;;;;;;;;;;;;;26.03;60.02;100630.28;5088298;28;1255;-63
2021/07/18 10:01:23;;;;;;;;;;;;;;;26.04;59.55;100635.50;5088281;28;918;-62
2021/07/18 10:03:52;;;;;;;;;;;;;;;26.04;59.28;100632.00;5087662;28;1354;-63
2021/07/18 10:06:20;;;;;;;;;;;;;;;26.02;59.31;100633.97;5087749;28;1914;-63
2021/07/18 10:08:53;;;;;;;;;;;;;;;26.01;59.02;100632.25;5098346;28;1305;-63
2021/07/18 10:11:21;;;;;;;;;;;;;;;26.00;59.68;100634.09;5108749;28;1772;-62
2021/07/18 10:13:49;;;;;;;;;;;;;;;26.01;58.83;100634.94;5109099;28;1234;-62
2021/07/18 10:16:17;;;;;;;;;;;;;;;26.00;58.17;100631.41;5089140;28;1179;-61
2021/07/18 10:18:45;;;;;;;;;;;;;;;26.01;58.61;100637.59;5089917;28;1356;-62
2021/07/18 10:21:13;;;;;;;;;;;;;;;26.00;58.92;100626.06;5108161;28;1116;-62
2021/07/18 10:23:42;;;;;;;;;;;;;;;26.01;58.34;100630.44;5089325;28;1329;-62
2021/07/18 10:26:17;;;;;;;;;;;;;;;26.02;57.86;100625.97;5108249;28;1977;-63
2021/07/18 10:28:48;;;;;;;;;;;;;;;26.03;58.06;100627.63;5089481;28;1355;-64
2021/07/18 10:31:51;;;;;;;;;;;;;;;26.02;58.79;100624.09;5089442;28;703;-63
2021/07/18 10:34:24;;;;;;;;;;;;;;;26.02;58.54;100628.63;5064281;28;1335;-63
2021/07/18 10:36:51;;;;;;;;;;;;;;;26.02;58.93;100624.09;5107608;28;826;-62
2021/07/18 10:39:29;;;;;;;;;;;;;;;26.03;58.38;100625.81;5089094;28;1344;-63
2021/07/18 10:41:59;;;;;;;;;;;;;;;26.06;58.53;100625.53;5107606;28;973;-63
2021/07/18 10:44:43;;;;;;;;;;;;;;;26.05;58.23;100623.00;5088700;28;1556;-63
2021/07/18 10:47:11;;;;;;;;;;;;;;;26.06;58.21;100632.69;5107966;28;1949;-61
2021/07/18 10:49:47;;;;;;;;;;;;;;;26.05;58.00;100633.69;5108216;28;1290;-63
2021/07/18 10:52:15;;;;;;;;;;;;;;;26.04;57.93;100623.97;5088926;28;1750;-62
2021/07/18 10:55:19;;;;;;;;;;;;;;;26.00;58.77;100618.06;5107813;28;1329;-62
2021/07/18 10:57:51;;;;;;;;;;;;;;;26.04;58.16;100629.31;5108021;28;892;-62
2021/07/18 11:00:20;;;;;;;;;;;;;;;26.03;58.11;100631.13;5088738;28;1334;-62
2021/07/18 11:03:07;;;;;;;;;;;;;;;26.06;58.32;100630.00;5089407;28;2268;-61
2021/07/18 11:05:38;;;;;;;;;;;;;;;26.07;58.09;100619.22;5107230;28;1913;-61
2021/07/18 11:08:07;;;;;;;;;;;;;;;26.08;58.13;100620.06;5087790;28;1368;-63
2021/07/18 11:11:03;;;;;;;;;;;;;;;26.05;57.66;100618.50;5107469;28;1513;-64
2021/07/18 11:13:33;;;;;;;;;;;;;;;26.06;57.78;100622.00;5091591;28;1477;-62
2021/07/18 11:16:00;;;;;;;;;;;;;;;26.06;57.73;100617.53;5089502;28;832;-62
2021/07/18 11:18:35;;;;;;;;;;;;;;;26.09;57.36;100613.72;5107338;28;1301;-63
2021/07/18 11:21:30;;;;;;;;;;;;;;;26.08;57.45;100617.41;5107223;28;886;-64
2021/07/18 11:23:57;;;;;;;;;;;;;;;26.05;57.24;100612.34;5107246;28;1299;-64
2021/07/18 11:26:24;;;;;;;;;;;;;;;26.10;57.24;100615.44;5107434;28;1901;-64
2021/07/18 11:29:02;;;;;;;;;;;;;;;26.09;57.47;100613.72;5107263;28;1324;-63
2021/07/18 11:31:33;;;;;;;;;;;;;;;26.08;57.79;100622.75;5107468;28;758;-61
2021/07/18 11:34:04;;;;;;;;;;;;;;;26.08;57.18;100610.22;5107533;28;1295;-62
2021/07/18 11:36:32;;;;;;;;;;;;;;;26.08;56.71;100612.88;5088976;28;904;-62
2021/07/18 11:39:11;;;;;;;;;;;;;;;26.16;56.01;100614.06;5107279;28;1281;-62
2021/07/18 11:41:40;;;;;;;;;;;;;;;26.12;56.35;100609.94;5088223;28;1001;-62
2021/07/18 11:44:12;;;;;;;;;;;;;;;26.11;56.73;100610.94;5106177;28;1536;-62
2021/07/18 11:46:52;;;;;;;;;;;;;;;26.11;55.91;100611.78;5106614;28;2053;-62
2021/07/18 11:49:24;;;;;;;;;;;;;;;26.17;54.63;100599.75;5106223;28;1224;-62
2021/07/18 11:51:51;;;;;;;;;;;;;;;26.16;54.85;100601.56;5088589;28;834;-62
2021/07/18 11:54:18;;;;;;;;;;;;;;;26.14;54.50;100595.50;5088341;28;1637;-63
2021/07/18 11:56:45;;;;;;;;;;;;;;;26.14;54.48;100599.97;5107378;28;1088;-64
2021/07/18 11:59:13;;;;;;;;;;;;;;;26.15;54.69;100602.53;5088351;28;1265;-64
2021/07/18 12:01:41;;;;;;;;;;;;;;;26.18;53.63;100596.91;5088532;28;881;-63
2021/07/18 12:04:13;;;;;;;;;;;;;;;26.16;54.85;100601.56;5087935;28;1231;-63
2021/07/18 12:06:39;;;;;;;;;;;;;;;26.14;54.55;100600.84;5106365;28;1910;-63
2021/07/18 12:09:13;;;;;;;;;;;;;;;26.15;54.27;100607.88;5105378;28;1325;-65
2021/07/18 12:11:44;;;;;;;;;;;;;;;26.20;53.67;100599.47;5097287;28;1162;-65
2021/07/18 12:14:11;;;;;;;;;;;;;;;26.08;52.41;100606.72;5109226;28;1316;-69
2021/07/18 12:16:39;;;;;;;;;;;;;;;25.96;51.80;100605.97;5109725;28;1216;-68
2021/07/18 12:19:06;;;;;;;;;;;;;;;25.93;51.85;100602.75;5106941;28;1287;-69
2021/07/18 12:21:34;;;;;;;;;;;;;;;25.88;51.07;100607.63;5109860;28;1137;-68
2021/07/18 12:24:33;;;;;;;;;;;;;;;25.85;51.15;100602.56;5109729;28;1299;-65
2021/07/18 12:27:02;;;;;;;;;;;;;;;25.78;50.40;100596.94;5070914;28;1906;-66
2021/07/18 12:29:30;;;;;;;;;;;;;;;25.76;50.21;100590.91;5083673;28;1381;-67
2021/07/18 12:31:57;;;;;;;;;;;;;;;25.75;49.40;100596.38;5102289;28;1180;-68
2021/07/18 12:34:26;;;;;;;;;;;;;;;25.72;50.17;100588.63;5095971;28;1326;-69
2021/07/18 12:37:13;;;;;;;;;;;;;;;25.70;51.12;100591.44;5108830;28;1259;-68
2021/07/18 12:39:44;;;;;;;;;;;;;;;25.69;51.86;100595.09;5090088;28;1799;-68
2021/07/18 12:42:21;;;;;;;;;;;;;;;25.68;52.05;100588.09;5107681;28;1268;-68
2021/07/18 12:44:48;;;;;;;;;;;;;;;25.65;51.49;100592.84;5107513;28;1355;-70
2021/07/18 12:47:23;;;;;;;;;;;;;;;25.62;51.09;100591.28;5091220;28;1905;-65
2021/07/18 12:50:12;;;;;;;;;;;;;;;25.62;50.97;100588.63;5106948;28;1271;-66
2021/07/18 12:52:50;;;;;;;;;;;;;;;25.58;50.82;100592.53;5108442;28;1264;-66
2021/07/18 12:55:18;;;;;;;;;;;;;;;25.58;50.35;100589.00;5108029;28;1326;-66
2021/07/18 12:57:45;;;;;;;;;;;;;;;25.52;49.97;100593.91;5109219;28;1193;-68